메인 페이지
METAR-TAF:

METAR-TAF

공항 :

안토파가스타, 칠레

위도: 23-26S, 경도: 070-26W, 고도: 135m

현재 날씨관측

예보는 37분 전, 01:00시(UTC)에 발표되었습니다.
7kt
온도 20°C
습도 83%
기압 1015 hPa
시정 10km 이상
1500m 미만 상공 구름 및 적란운 없음

METAR: SCFA 030100Z 18007KT CAVOK 20/17 Q1015 NOSIG

시각: 22:37 (01:37 UTC)

예보

예보는 2 시간 55분 전, 22:42시(UTC)에 발표되었습니다.
예보 대상 시간: 03일 00시부터 03일 24시까지 (UTC)
남남서12kt
시정 10km 이상
고도 2000ft 상공 구름 조금
전환 중
03일 01시부터 03일 03시까지 (UTC)
남남서4kt
고도 2500ft 상공 구름 많음
전환 중
03일 12시부터 03일 14시까지 (UTC)
고도 2500ft 상공 구름 조금
전환 중
03일 15시부터 03일 17시까지 (UTC)
남남서14kt

TAF: SCFA 022242Z 0300/0324 20012KT 9999 FEW020 TN20/0310Z TX24/0318Z BECMG 0301/0303 20004KT BKN025 BECMG 0312/0314 FEW025 BECMG 0315/0317 20014KT

4,000개 이상의 공항 관측 자료 및 예보 (METAR 및 TAF 보고).

지도상에서 검색 가능한 기상관측소가 노란 점과 빨간 점으로 표시되어 있습니다.

기상관측소 명을 보려면 표시 위로 마우스를 이동하세요.

날씨 관측과 예보를 보려면 클릭하세요.

지도 변경 : 확대하려면 엑스 표시가 있는 녹색 버튼, 축소하려면 빼기 표시가 있는 녹색 버튼, 다음 페이지의 지도를 보려면 녹색 화살표를 클릭하세요.


METAR-TAF: